Albany, New York
Traffic Map
Current Weather Conditions
Albany, New York
Clear
Clear
18°
Feels Like: 18°
Wind Chill: 18° Ceiling: Unl
Heat Index: 18° Visibility: 10mi
Dew Point: 13° Wind: 16mph
Humidity: 73% Direction: 170° (S)
Pressure: 30.02in Gusts: 23mph
Raw Report DataKALB 210351Z 17014G20KT 10SM CLR 18/13 A3002 RMK AO2 SLP166 T01830133
Traffic Incident Summary
Active as of:
Severity:
Category:
InformationThere was an issue retrieving the traffic information for this location. Please try a different location or try again shortly.
Advertisements
Track Severe Weather on mobile